Time;durP1;ratioP1;P1;durP2;ratioP2;P2;SDS_P1;SDS_P2;PMS_P1;PMS_P2;Temp;Humidity;BMP_temperature;BMP_pressure;BME280_temperature;BME280_humidity;BME280_pressure;Samples;Min_cycle;Max_cycle;Signal;HPM_P1;HPM_P2
2022/02/28 00:01:32;;;;;;;6.40;2.50;;;8.30;96.70;;;;;;4991816;28;20070;-82
2022/02/28 00:04:00;;;;;;;5.10;2.20;;;8.30;96.70;;;;;;4991397;28;20050;-82
2022/02/28 00:06:29;;;;;;;5.32;2.90;;;8.30;96.70;;;;;;4988522;28;20100;-82
2022/02/28 00:08:59;;;;;;;2.88;2.20;;;8.30;96.70;;;;;;5003376;28;20128;-81
2022/02/28 00:11:29;;;;;;;4.78;2.38;;;8.30;96.70;;;;;;4995617;28;20503;-81
2022/02/28 00:13:57;;;;;;;3.50;2.70;;;8.20;96.70;;;;;;4972342;28;20046;-82
2022/02/28 00:16:26;;;;;;;5.80;2.80;;;8.20;96.70;;;;;;4987306;28;20715;-82
2022/02/28 00:18:54;;;;;;;4.63;2.30;;;8.20;96.70;;;;;;4992485;28;20446;-79
2022/02/28 00:21:23;;;;;;;4.57;2.40;;;8.20;96.70;;;;;;5007000;28;20046;-82
2022/02/28 00:23:51;;;;;;;3.35;2.30;;;8.20;96.70;;;;;;4988739;28;20045;-82
2022/02/28 00:26:21;;;;;;;4.55;2.72;;;8.20;96.70;;;;;;5006978;28;20046;-81
2022/02/28 00:28:50;;;;;;;5.07;2.33;;;8.20;96.70;;;;;;4973847;28;20132;-81
2022/02/28 00:31:19;;;;;;;4.38;2.53;;;8.10;96.70;;;;;;4986852;28;20046;-80
2022/02/28 00:33:47;;;;;;;3.63;2.40;;;8.10;96.70;;;;;;4985203;28;20713;-82
2022/02/28 00:36:16;;;;;;;4.93;2.70;;;8.10;96.70;;;;;;4987817;28;20074;-82
2022/02/28 00:38:45;;;;;;;4.03;2.80;;;8.00;96.70;;;;;;4988457;28;20065;-82
2022/02/28 00:41:14;;;;;;;4.45;2.88;;;8.00;96.70;;;;;;4990533;28;20066;-81
2022/02/28 00:43:44;;;;;;;7.80;2.40;;;8.00;96.70;;;;;;4985701;28;20066;-82
2022/02/28 00:46:13;;;;;;;5.00;2.45;;;7.90;96.70;;;;;;4987287;28;20046;-82
2022/02/28 00:48:42;;;;;;;5.82;2.72;;;7.90;96.70;;;;;;4986011;28;20064;-82
2022/02/28 00:51:10;;;;;;;4.22;2.25;;;7.90;96.70;;;;;;4987357;28;20058;-80
2022/02/28 00:53:41;;;;;;;3.55;2.47;;;7.90;96.70;;;;;;4984953;28;20137;-81
2022/02/28 00:56:09;;;;;;;5.57;3.05;;;7.90;96.70;;;;;;4987259;28;20045;-82
2022/02/28 00:58:37;;;;;;;4.63;2.80;;;7.80;96.70;;;;;;4988001;28;20057;-83
2022/02/28 01:01:08;;;;;;;4.45;2.65;;;7.90;96.70;;;;;;4991130;28;20607;-81
2022/02/28 01:03:38;;;;;;;4.75;2.72;;;7.90;96.70;;;;;;4989451;28;20057;-81
2022/02/28 01:06:07;;;;;;;5.03;2.65;;;7.80;96.70;;;;;;4986934;28;20049;-82
2022/02/28 01:08:35;;;;;;;3.88;2.22;;;7.80;96.70;;;;;;5004229;28;20045;-82
2022/02/28 01:11:04;;;;;;;5.85;2.42;;;7.90;96.70;;;;;;4987898;28;20042;-82
2022/02/28 01:13:33;;;;;;;6.00;2.30;;;7.90;96.70;;;;;;4984044;28;20050;-81
2022/02/28 01:16:01;;;;;;;4.90;2.70;;;7.90;96.70;;;;;;4998214;28;20070;-82
2022/02/28 01:18:31;;;;;;;6.32;2.60;;;8.00;96.70;;;;;;5005196;28;20386;-81
2022/02/28 01:21:00;;;;;;;4.05;2.20;;;8.00;96.70;;;;;;4983988;28;20504;-81
2022/02/28 01:23:28;;;;;;;4.57;2.38;;;7.90;96.70;;;;;;4988543;28;20050;-82
2022/02/28 01:25:58;;;;;;;4.18;2.45;;;8.00;96.70;;;;;;4990505;28;20046;-80
2022/02/28 01:28:26;;;;;;;4.05;2.70;;;8.00;96.70;;;;;;4986994;28;20053;-82
2022/02/28 01:30:55;;;;;;;6.43;2.70;;;8.00;96.70;;;;;;4992200;28;20054;-84
2022/02/28 01:33:24;;;;;;;5.25;2.22;;;7.90;96.70;;;;;;4987789;28;20049;-82
2022/02/28 01:35:55;;;;;;;5.78;2.63;;;8.00;96.70;;;;;;4987207;28;20046;-81
2022/02/28 01:38:23;;;;;;;5.05;2.60;;;8.00;96.70;;;;;;4970965;28;20057;-82
2022/02/28 01:40:55;;;;;;;4.10;2.38;;;8.00;96.70;;;;;;4989710;28;20042;-81
2022/02/28 01:43:23;;;;;;;4.78;2.35;;;8.00;96.70;;;;;;4986494;28;20069;-82
2022/02/28 01:45:52;;;;;;;5.43;2.90;;;8.00;96.70;;;;;;4986686;28;20046;-82
2022/02/28 01:48:20;;;;;;;5.80;2.80;;;8.00;96.70;;;;;;4984927;28;20049;-80
2022/02/28 01:50:49;;;;;;;3.80;2.45;;;8.00;96.70;;;;;;4985483;28;20136;-81
2022/02/28 01:53:24;;;;;;;5.72;3.05;;;7.90;96.70;;;;;;4991070;28;20053;-83
2022/02/28 01:55:53;;;;;;;5.10;2.50;;;7.90;96.70;;;;;;5000342;28;20054;-82
2022/02/28 01:58:21;;;;;;;6.72;2.55;;;7.90;96.70;;;;;;5003562;28;20050;-82
2022/02/28 02:00:50;;;;;;;5.93;2.90;;;7.90;96.70;;;;;;4986093;28;20984;-81
2022/02/28 02:03:19;;;;;;;5.28;3.03;;;7.90;96.70;;;;;;4990699;28;20136;-82
2022/02/28 02:05:47;;;;;;;6.70;3.03;;;7.80;96.70;;;;;;5005782;28;20595;-82
2022/02/28 02:08:16;;;;;;;3.83;2.60;;;7.80;96.70;;;;;;5002500;28;20042;-84
2022/02/28 02:10:47;;;;;;;4.55;2.75;;;7.80;96.70;;;;;;4988026;28;20050;-84
2022/02/28 02:13:16;;;;;;;6.22;2.50;;;7.80;96.70;;;;;;4988225;28;20073;-84
2022/02/28 02:15:46;;;;;;;4.43;2.80;;;7.80;96.70;;;;;;4993696;28;20050;-84
2022/02/28 02:18:15;;;;;;;6.95;2.65;;;7.80;96.70;;;;;;4995344;28;20044;-84
2022/02/28 02:20:45;;;;;;;5.95;3.03;;;7.80;96.70;;;;;;5008953;28;20065;-84
2022/02/28 02:23:15;;;;;;;5.00;2.97;;;7.80;96.70;;;;;;4987878;28;20034;-84
2022/02/28 02:25:44;;;;;;;3.97;2.33;;;7.80;96.70;;;;;;4967430;28;20423;-84
2022/02/28 02:28:21;;;;;;;4.70;2.42;;;7.80;96.70;;;;;;4984644;28;20049;-84
2022/02/28 02:30:53;;;;;;;5.10;2.40;;;7.80;96.70;;;;;;4993645;28;20062;-84
2022/02/28 02:33:23;;;;;;;5.55;2.60;;;7.70;96.70;;;;;;5009308;28;20574;-84
2022/02/28 02:35:59;;;;;;;6.95;2.53;;;7.70;96.70;;;;;;4990394;28;20046;-84
2022/02/28 02:38:31;;;;;;;5.10;2.67;;;7.70;96.70;;;;;;4972145;28;20050;-84
2022/02/28 02:41:00;;;;;;;3.70;2.42;;;7.60;96.70;;;;;;4987682;28;20069;-84
2022/02/28 02:43:28;;;;;;;3.85;2.60;;;7.60;96.70;;;;;;4989133;28;20330;-84
2022/02/28 02:45:56;;;;;;;5.68;2.42;;;7.60;96.70;;;;;;4994469;28;20043;-84
2022/02/28 02:48:26;;;;;;;5.55;2.10;;;7.60;96.70;;;;;;4988104;28;20161;-84
2022/02/28 02:51:01;;;;;;;4.60;2.60;;;7.60;96.70;;;;;;4980032;28;20053;-84
2022/02/28 02:53:31;;;;;;;4.50;2.53;;;7.60;96.70;;;;;;4997705;28;20694;-84
2022/02/28 02:55:59;;;;;;;4.85;2.50;;;7.70;96.70;;;;;;4990195;28;20097;-84
2022/02/28 02:58:31;;;;;;;4.93;2.42;;;7.70;96.70;;;;;;4995353;28;20053;-85
2022/02/28 03:01:00;;;;;;;4.43;2.60;;;7.70;96.70;;;;;;4995071;28;20045;-84
2022/02/28 03:03:32;;;;;;;4.85;3.30;;;7.70;96.70;;;;;;4992772;28;20051;-84
2022/02/28 03:06:03;;;;;;;4.40;2.30;;;7.70;96.70;;;;;;5005722;28;20046;-84
2022/02/28 03:08:35;;;;;;;5.25;2.65;;;7.70;96.70;;;;;;4990127;28;20105;-84
2022/02/28 03:11:03;;;;;;;5.75;2.67;;;7.60;96.70;;;;;;4983058;28;20053;-84
2022/02/28 03:13:34;;;;;;;4.72;2.70;;;7.60;96.70;;;;;;4990578;28;20046;-84
2022/02/28 03:16:04;;;;;;;3.83;2.25;;;7.60;96.70;;;;;;4999316;28;20149;-84
2022/02/28 03:18:36;;;;;;;2.80;2.13;;;7.60;96.70;;;;;;4991042;28;20566;-83
2022/02/28 03:21:06;;;;;;;5.95;2.70;;;7.70;96.70;;;;;;5006066;28;20054;-84
2022/02/28 03:23:35;;;;;;;5.53;2.30;;;7.70;96.70;;;;;;5007277;28;20092;-84
2022/02/28 03:26:07;;;;;;;5.35;2.45;;;7.70;96.70;;;;;;4987732;28;20514;-84
2022/02/28 03:28:38;;;;;;;4.15;2.28;;;7.70;96.70;;;;;;4976317;28;20046;-84
2022/02/28 03:31:09;;;;;;;3.70;2.30;;;7.70;96.70;;;;;;4990047;28;20508;-84
2022/02/28 03:33:38;;;;;;;5.88;2.45;;;7.70;96.70;;;;;;4989954;28;20047;-83
2022/02/28 03:36:08;;;;;;;4.75;2.20;;;7.70;96.70;;;;;;4991604;28;20035;-84
2022/02/28 03:38:42;;;;;;;4.32;2.30;;;7.70;96.70;;;;;;5002532;28;20038;-84
2022/02/28 03:41:10;;;;;;;4.38;2.40;;;7.70;96.70;;;;;;4979986;28;20152;-84
2022/02/28 03:43:39;;;;;;;5.72;2.45;;;7.70;96.70;;;;;;4994870;28;20073;-84
2022/02/28 03:46:12;;;;;;;5.40;2.55;;;7.60;96.70;;;;;;4991100;28;20052;-84
2022/02/28 03:48:59;;;;;;;2.95;2.25;;;7.60;96.70;;;;;;4988842;28;20535;-84
2022/02/28 03:51:44;;;;;;;4.47;2.50;;;7.60;96.70;;;;;;4989359;28;20046;-83
2022/02/28 03:54:23;;;;;;;4.18;2.78;;;7.60;96.70;;;;;;4986770;28;20145;-84
2022/02/28 03:56:52;;;;;;;4.68;2.60;;;7.70;96.70;;;;;;4988859;28;20050;-84
2022/02/28 03:59:23;;;;;;;5.63;2.80;;;7.70;96.70;;;;;;5007628;28;20049;-81
2022/02/28 04:01:52;;;;;;;4.97;2.53;;;7.50;96.70;;;;;;4989189;28;20137;-82
2022/02/28 04:04:30;;;;;;;6.15;3.10;;;7.50;96.70;;;;;;4992135;28;20786;-82
2022/02/28 04:07:00;;;;;;;4.10;2.72;;;7.50;96.70;;;;;;4988565;28;20038;-81
2022/02/28 04:09:29;;;;;;;3.53;2.05;;;7.50;96.70;;;;;;4986181;28;20045;-80
2022/02/28 04:11:57;;;;;;;6.22;2.85;;;7.50;96.70;;;;;;4992279;28;20511;-82
2022/02/28 04:14:25;;;;;;;4.20;2.47;;;7.50;96.70;;;;;;4984305;28;20053;-82
2022/02/28 04:16:54;;;;;;;4.95;2.53;;;7.40;96.70;;;;;;4990524;28;20141;-81
2022/02/28 04:19:41;;;;;;;4.60;2.97;;;7.50;96.70;;;;;;4995825;28;20073;-80
2022/02/28 04:22:11;;;;;;;4.47;2.45;;;7.50;96.70;;;;;;5001322;28;20081;-82
2022/02/28 04:24:44;;;;;;;4.72;2.47;;;7.50;96.70;;;;;;5007934;28;20042;-82
2022/02/28 04:27:13;;;;;;;4.18;2.30;;;7.60;96.70;;;;;;4987322;28;20797;-81
2022/02/28 04:29:42;;;;;;;3.75;2.58;;;7.50;96.70;;;;;;4988097;28;20519;-81
2022/02/28 04:32:17;;;;;;;4.93;2.40;;;7.50;96.70;;;;;;4981563;28;20094;-80
2022/02/28 04:34:53;;;;;;;4.43;2.67;;;7.40;96.70;;;;;;4969993;28;20058;-82
2022/02/28 04:37:22;;;;;;;5.18;2.85;;;7.40;96.70;;;;;;4991084;28;20053;-82
2022/02/28 04:39:51;;;;;;;3.42;2.28;;;7.30;96.70;;;;;;4992736;28;20100;-82
2022/02/28 04:42:21;;;;;;;5.70;2.53;;;7.20;96.70;;;;;;4984302;28;20054;-82
2022/02/28 04:44:51;;;;;;;4.72;2.50;;;7.20;96.70;;;;;;4981345;28;20053;-82
2022/02/28 04:47:22;;;;;;;5.95;2.88;;;7.20;96.70;;;;;;5007092;28;20555;-82
2022/02/28 04:50:09;;;;;;;6.63;3.00;;;7.00;96.70;;;;;;4991330;28;20057;-82
2022/02/28 04:52:40;;;;;;;7.20;3.22;;;7.00;96.70;;;;;;4988912;28;20041;-81
2022/02/28 04:55:10;;;;;;;5.93;3.10;;;6.90;96.70;;;;;;4993540;28;20050;-81
2022/02/28 04:57:39;;;;;;;5.30;2.67;;;6.80;96.70;;;;;;4985093;28;20042;-82
2022/02/28 05:00:12;;;;;;;6.60;3.20;;;6.80;96.70;;;;;;4974070;28;20054;-82
2022/02/28 05:02:43;;;;;;;5.30;3.13;;;6.90;96.70;;;;;;4985016;28;20050;-81
2022/02/28 05:05:24;;;;;;;3.92;3.13;;;7.00;96.70;;;;;;4975488;28;20105;-81
2022/02/28 05:07:55;;;;;;;5.72;3.35;;;7.10;96.70;;;;;;4989752;28;20073;-82
2022/02/28 05:10:23;;;;;;;4.47;2.92;;;6.90;96.70;;;;;;4985230;28;20113;-80
2022/02/28 05:12:59;;;;;;;5.20;2.92;;;6.90;96.70;;;;;;4982166;28;20042;-82
2022/02/28 05:15:29;;;;;;;6.07;3.15;;;6.70;96.70;;;;;;4991118;28;20096;-81
2022/02/28 05:17:59;;;;;;;4.03;3.10;;;6.90;96.70;;;;;;4985393;28;20043;-82
2022/02/28 05:20:29;;;;;;;4.95;3.28;;;6.80;96.70;;;;;;4986314;28;20053;-83
2022/02/28 05:22:59;;;;;;;8.48;3.70;;;6.80;96.70;;;;;;4984636;28;20058;-81
2022/02/28 05:25:27;;;;;;;7.57;4.35;;;6.80;96.70;;;;;;5001238;28;20130;-81
2022/02/28 05:27:57;;;;;;;7.10;3.50;;;6.80;96.70;;;;;;4987555;28;20040;-81
2022/02/28 05:30:26;;;;;;;6.28;3.53;;;6.90;96.70;;;;;;4986758;28;20162;-79
2022/02/28 05:32:58;;;;;;;6.05;3.40;;;6.90;96.70;;;;;;4982983;28;21009;-80
2022/02/28 05:35:30;;;;;;;5.30;3.10;;;6.80;96.70;;;;;;4996129;28;20046;-79
2022/02/28 05:38:13;;;;;;;6.57;4.03;;;6.80;96.70;;;;;;4996403;28;20070;-78
2022/02/28 05:40:46;;;;;;;5.32;3.35;;;6.80;96.70;;;;;;4981584;28;20039;-78
2022/02/28 05:43:14;;;;;;;7.78;4.28;;;6.80;96.70;;;;;;4989735;28;20046;-80
2022/02/28 05:45:44;;;;;;;7.57;3.70;;;6.80;96.70;;;;;;4984821;28;20419;-79
2022/02/28 05:48:29;;;;;;;8.25;3.42;;;6.50;96.70;;;;;;4992108;28;20153;-79
2022/02/28 05:50:58;;;;;;;8.38;3.83;;;6.10;96.70;;;;;;4984565;28;20131;-80
2022/02/28 05:53:28;;;;;;;8.25;3.67;;;6.10;96.70;;;;;;4983863;28;20056;-80
2022/02/28 05:55:56;;;;;;;5.43;3.50;;;6.20;96.70;;;;;;4984371;28;20606;-78
2022/02/28 05:58:25;;;;;;;8.75;4.07;;;6.00;96.70;;;;;;4967300;28;20128;-79
2022/02/28 06:00:53;;;;;;;6.63;3.70;;;5.90;96.70;;;;;;4989875;28;20045;-79
2022/02/28 06:03:22;;;;;;;4.63;3.35;;;6.00;96.70;;;;;;5002397;28;20577;-79
2022/02/28 06:05:50;;;;;;;8.90;4.00;;;6.00;96.70;;;;;;4984993;28;20115;-78
2022/02/28 06:08:19;;;;;;;9.82;3.95;;;6.00;96.70;;;;;;4991906;28;20049;-80
2022/02/28 06:10:49;;;;;;;8.43;4.63;;;6.10;96.70;;;;;;4987556;28;20525;-81
2022/02/28 06:13:17;;;;;;;9.45;3.50;;;6.10;96.70;;;;;;4994153;28;20046;-82
2022/02/28 06:15:45;;;;;;;7.05;3.38;;;6.10;96.70;;;;;;5006947;28;20068;-81
2022/02/28 06:18:14;;;;;;;7.05;3.97;;;6.10;96.70;;;;;;5000617;28;20050;-83
2022/02/28 06:20:43;;;;;;;9.70;4.20;;;6.20;96.70;;;;;;4983503;28;20046;-79
2022/02/28 06:23:14;;;;;;;8.60;4.28;;;6.10;96.70;;;;;;5000727;28;20039;-79
2022/02/28 06:25:43;;;;;;;8.95;3.90;;;6.10;96.70;;;;;;4986307;28;20050;-81
2022/02/28 06:28:18;;;;;;;9.50;3.78;;;6.20;96.70;;;;;;5001400;28;20061;-81
2022/02/28 06:30:46;;;;;;;11.05;4.38;;;6.20;96.70;;;;;;4983000;28;20042;-81
2022/02/28 06:33:16;;;;;;;8.85;3.92;;;6.10;96.70;;;;;;4985351;28;20042;-81
2022/02/28 06:35:48;;;;;;;10.57;4.22;;;6.30;96.70;;;;;;4987678;28;20084;-81
2022/02/28 06:38:17;;;;;;;7.78;3.58;;;6.40;96.70;;;;;;5005083;28;20038;-81
2022/02/28 06:40:48;;;;;;;7.78;4.55;;;6.30;96.70;;;;;;4967186;28;20424;-82
2022/02/28 06:43:24;;;;;;;11.77;6.20;;;6.30;96.70;;;;;;5000143;28;20046;-81
2022/02/28 06:45:54;;;;;;;12.43;5.10;;;6.20;96.70;;;;;;4991723;28;20039;-82
2022/02/28 06:48:24;;;;;;;7.22;4.57;;;6.20;96.70;;;;;;4985954;28;20042;-82
2022/02/28 06:50:52;;;;;;;11.43;4.60;;;6.30;96.70;;;;;;4988224;28;20049;-83
2022/02/28 06:53:23;;;;;;;9.52;4.63;;;6.40;96.70;;;;;;4999279;28;20038;-82
2022/02/28 06:55:53;;;;;;;11.60;4.40;;;6.50;96.70;;;;;;4989948;28;20057;-82
2022/02/28 06:58:24;;;;;;;12.50;4.60;;;6.60;96.70;;;;;;5003016;28;20429;-81
2022/02/28 07:00:53;;;;;;;10.00;4.80;;;6.60;96.70;;;;;;4988146;28;20049;-81
2022/02/28 07:03:54;;;;;;;9.90;4.55;;;6.60;96.70;;;;;;4974451;28;20058;-81
2022/02/28 07:06:22;;;;;;;8.55;4.50;;;6.70;96.70;;;;;;4992174;28;20050;-82
2022/02/28 07:08:51;;;;;;;8.02;5.28;;;6.80;96.70;;;;;;4990971;28;20034;-82
2022/02/28 07:11:20;;;;;;;9.18;4.82;;;6.80;96.70;;;;;;4992872;28;20100;-79
2022/02/28 07:13:50;;;;;;;9.68;4.20;;;6.70;96.70;;;;;;4985792;28;20042;-80
2022/02/28 07:16:19;;;;;;;7.60;3.83;;;6.70;96.70;;;;;;4989890;28;20049;-82
2022/02/28 07:18:47;;;;;;;7.55;4.25;;;6.80;96.70;;;;;;5003663;28;20061;-82
2022/02/28 07:21:16;;;;;;;5.70;3.80;;;6.90;96.70;;;;;;5006581;28;20049;-82
2022/02/28 07:23:44;;;;;;;9.73;4.20;;;6.90;96.70;;;;;;4975030;28;20045;-79
2022/02/28 07:26:12;;;;;;;8.07;4.72;;;7.00;96.70;;;;;;4993654;28;20754;-82
2022/02/28 07:28:40;;;;;;;6.85;4.75;;;7.10;96.70;;;;;;4970544;28;20207;-82
2022/02/28 07:31:30;;;;;;;8.77;5.65;;;7.30;96.70;;;;;;4992091;28;20042;-82
2022/02/28 07:33:59;;;;;;;8.95;5.78;;;7.20;96.70;;;;;;4997650;28;20046;-82
2022/02/28 07:36:28;;;;;;;11.82;6.32;;;7.10;96.70;;;;;;4988269;28;20113;-82
2022/02/28 07:38:56;;;;;;;12.40;5.53;;;7.10;96.70;;;;;;4988788;28;20057;-80
2022/02/28 07:41:24;;;;;;;9.10;5.50;;;7.30;96.70;;;;;;4989437;28;20480;-81
2022/02/28 07:43:53;;;;;;;10.65;5.70;;;7.30;96.70;;;;;;5007121;28;20049;-79
2022/02/28 07:46:21;;;;;;;7.40;5.32;;;7.30;96.70;;;;;;4989423;28;20289;-82
2022/02/28 07:48:51;;;;;;;9.00;5.00;;;7.40;96.70;;;;;;4990532;28;20145;-80
2022/02/28 07:51:19;;;;;;;8.18;5.22;;;7.40;96.70;;;;;;4990625;28;20161;-80
2022/02/28 07:53:48;;;;;;;7.55;4.75;;;7.50;96.70;;;;;;4974146;28;20073;-82
2022/02/28 07:56:17;;;;;;;10.52;5.40;;;7.50;96.70;;;;;;4988536;28;20042;-82
2022/02/28 07:58:45;;;;;;;8.32;5.43;;;7.50;96.70;;;;;;5007086;28;20678;-80
2022/02/28 08:01:13;;;;;;;9.93;5.13;;;7.60;96.70;;;;;;4990988;28;20803;-82
2022/02/28 08:03:42;;;;;;;9.20;5.22;;;7.70;96.70;;;;;;5009067;28;20503;-82
2022/02/28 08:06:12;;;;;;;8.38;4.85;;;7.80;96.70;;;;;;4981642;28;20563;-80
2022/02/28 08:08:40;;;;;;;8.93;4.38;;;7.80;96.70;;;;;;4996612;28;20443;-81
2022/02/28 08:11:09;;;;;;;9.90;4.88;;;7.90;96.70;;;;;;4991565;28;20041;-81
2022/02/28 08:13:37;;;;;;;6.88;4.07;;;7.90;96.70;;;;;;4987231;28;20066;-81
2022/02/28 08:16:05;;;;;;;8.13;5.20;;;8.00;96.70;;;;;;4986907;28;20132;-82
2022/02/28 08:18:34;;;;;;;8.80;4.72;;;8.10;96.70;;;;;;4994113;28;20209;-80
2022/02/28 08:21:02;;;;;;;7.50;4.57;;;8.20;96.70;;;;;;4994622;28;20171;-81
2022/02/28 08:23:32;;;;;;;7.97;5.25;;;8.20;96.70;;;;;;4990829;28;20054;-83
2022/02/28 08:26:00;;;;;;;7.57;4.95;;;8.30;96.70;;;;;;4986088;28;20594;-82
2022/02/28 08:28:29;;;;;;;6.60;4.32;;;8.40;96.70;;;;;;4987486;28;20085;-81
2022/02/28 08:30:57;;;;;;;7.32;5.13;;;8.40;96.70;;;;;;4988397;28;20133;-79
2022/02/28 08:33:26;;;;;;;8.43;4.88;;;8.50;96.70;;;;;;4992981;28;20751;-80
2022/02/28 08:35:54;;;;;;;7.70;4.47;;;8.50;96.70;;;;;;4995435;28;20487;-79
2022/02/28 08:38:22;;;;;;;8.38;4.43;;;8.60;96.70;;;;;;4989423;28;20053;-80
2022/02/28 08:40:52;;;;;;;7.32;4.80;;;8.60;96.70;;;;;;4992480;28;20042;-80
2022/02/28 08:43:21;;;;;;;10.73;5.40;;;8.70;96.70;;;;;;4990771;28;20607;-81
2022/02/28 08:45:50;;;;;;;9.27;4.93;;;8.80;96.70;;;;;;4995272;28;20593;-80
2022/02/28 08:48:18;;;;;;;7.65;4.70;;;8.80;96.70;;;;;;4987236;28;20058;-77
2022/02/28 08:50:47;;;;;;;7.68;5.28;;;8.80;96.70;;;;;;5004887;28;20053;-79
2022/02/28 08:53:15;;;;;;;6.97;4.78;;;8.80;96.70;;;;;;5001456;28;20060;-80
2022/02/28 08:55:43;;;;;;;8.15;5.38;;;8.90;96.70;;;;;;4993640;28;20038;-79
2022/02/28 08:58:13;;;;;;;8.27;4.63;;;9.00;96.70;;;;;;4985986;28;20048;-79
2022/02/28 09:00:41;;;;;;;8.88;4.65;;;9.00;96.70;;;;;;5003384;28;20057;-79
2022/02/28 09:03:09;;;;;;;7.75;4.53;;;9.10;96.70;;;;;;5000363;28;20440;-78
2022/02/28 09:05:38;;;;;;;8.27;4.72;;;9.20;96.70;;;;;;4989853;28;20815;-79
2022/02/28 09:08:06;;;;;;;8.88;4.93;;;9.20;96.70;;;;;;4987079;28;20039;-79
2022/02/28 09:10:34;;;;;;;6.93;4.57;;;9.30;96.70;;;;;;4987327;28;20046;-79
2022/02/28 09:13:07;;;;;;;6.05;4.45;;;9.40;96.70;;;;;;4987157;28;20042;-77
2022/02/28 09:15:37;;;;;;;7.45;3.97;;;9.50;96.70;;;;;;4991599;28;20054;-79
2022/02/28 09:18:07;;;;;;;7.05;4.53;;;9.50;96.70;;;;;;4985961;28;20046;-79
2022/02/28 09:20:36;;;;;;;6.82;4.03;;;9.60;96.70;;;;;;4988436;28;20046;-80
2022/02/28 09:23:05;;;;;;;9.43;4.50;;;9.60;96.70;;;;;;4971749;28;20049;-82
2022/02/28 09:25:34;;;;;;;6.57;4.07;;;9.60;96.70;;;;;;4972111;28;20084;-81
2022/02/28 09:28:02;;;;;;;6.15;4.35;;;9.60;96.70;;;;;;4986228;28;20054;-81
2022/02/28 09:30:30;;;;;;;7.82;4.60;;;9.70;96.70;;;;;;4991093;28;20035;-81
2022/02/28 09:33:01;;;;;;;4.97;3.75;;;9.90;96.70;;;;;;4987209;28;20061;-80
2022/02/28 09:35:29;;;;;;;6.18;3.90;;;9.90;96.70;;;;;;4990415;28;20047;-82
2022/02/28 09:38:08;;;;;;;5.55;4.35;;;10.10;96.70;;;;;;5002391;28;20311;-78
2022/02/28 09:40:37;;;;;;;8.55;4.55;;;10.10;96.70;;;;;;5004744;28;20109;-81
2022/02/28 09:43:34;;;;;;;;;;;10.20;96.70;;;;;;4936089;28;20536;-79
2022/02/28 09:46:39;;;;;;;7.25;4.40;;;10.30;96.70;;;;;;4988770;28;20071;-80
2022/02/28 09:49:35;;;;;;;6.85;4.72;;;10.40;96.70;;;;;;4986107;28;20054;-80
2022/02/28 09:52:30;;;;;;;9.30;4.90;;;10.60;96.70;;;;;;4982011;28;20049;-80
2022/02/28 09:55:30;;;;;;;7.28;4.38;;;10.60;96.70;;;;;;4971435;28;20046;-80
2022/02/28 09:58:28;;;;;;;7.00;4.82;;;10.70;96.70;;;;;;4994585;28;20523;-81
2022/02/28 10:00:58;;;;;;;7.45;4.63;;;10.80;96.70;;;;;;4987929;28;20046;-80
2022/02/28 10:03:29;;;;;;;8.60;4.80;;;10.90;96.70;;;;;;4983645;28;20050;-80
2022/02/28 10:06:01;;;;;;;6.90;5.00;;;11.00;96.70;;;;;;4984301;28;20814;-80
2022/02/28 10:08:40;;;;;;;7.22;4.60;;;11.10;96.70;;;;;;4984682;28;20054;-79
2022/02/28 10:11:24;;;;;;;7.45;4.00;;;11.20;96.70;;;;;;5003380;28;20488;-79
2022/02/28 10:13:54;;;;;;;9.38;4.10;;;11.30;96.70;;;;;;4988947;28;20150;-80
2022/02/28 10:16:31;;;;;;;5.85;4.07;;;11.50;96.70;;;;;;4987160;28;20041;-79
2022/02/28 10:19:00;;;;;;;5.63;4.30;;;11.50;96.70;;;;;;4987249;28;20077;-79
2022/02/28 10:21:42;;;;;;;5.47;3.67;;;11.60;96.70;;;;;;4986210;28;20122;-79
2022/02/28 10:24:11;;;;;;;5.45;3.35;;;11.60;96.70;;;;;;4988598;28;20117;-81
2022/02/28 10:27:17;;;;;;;5.00;3.55;;;11.40;96.70;;;;;;4950707;28;20051;-80
2022/02/28 10:30:07;;;;;;;6.85;4.10;;;11.50;96.70;;;;;;4978986;28;20077;-80
2022/02/28 10:32:53;;;;;;;6.30;3.83;;;11.70;96.70;;;;;;4997528;28;20065;-80
2022/02/28 10:36:10;;;;;;;6.05;3.63;;;11.80;96.70;;;;;;4944523;28;20255;-80
2022/02/28 10:39:10;;;;;;;5.90;3.55;;;11.90;96.70;;;;;;4894322;29;20517;-80
2022/02/28 10:41:40;;;;;;;5.53;3.55;;;12.10;96.70;;;;;;4924412;29;20051;-81
2022/02/28 10:44:11;;;;;;;6.63;3.38;;;12.20;96.70;;;;;;4912057;29;20052;-80
2022/02/28 10:46:44;;;;;;;6.97;4.25;;;12.20;96.70;;;;;;4927813;29;20130;-80
2022/02/28 10:49:17;;;;;;;8.02;4.18;;;12.10;96.70;;;;;;4930649;29;20573;-80
2022/02/28 10:51:48;;;;;;;6.22;4.15;;;12.20;96.70;;;;;;4932810;29;20134;-81
2022/02/28 10:54:25;;;;;;;5.20;3.70;;;12.10;96.70;;;;;;4933842;29;20043;-80
2022/02/28 10:56:59;;;;;;;6.30;4.05;;;12.10;96.70;;;;;;4914537;29;20070;-79
2022/02/28 10:59:29;;;;;;;5.68;4.13;;;12.20;96.70;;;;;;4925995;29;20052;-79
2022/02/28 11:01:59;;;;;;;6.13;3.83;;;12.40;96.70;;;;;;4929871;29;20598;-80
2022/02/28 11:04:32;;;;;;;5.55;3.60;;;12.50;95.80;;;;;;4927521;29;20450;-80
2022/02/28 11:07:01;;;;;;;8.77;3.70;;;12.50;95.90;;;;;;4927308;29;20058;-81
2022/02/28 11:09:36;;;;;;;4.97;3.17;;;12.50;94.90;;;;;;4928888;29;20134;-79
2022/02/28 11:12:28;;;;;;;5.53;3.53;;;12.60;94.40;;;;;;4934401;29;20604;-81
2022/02/28 11:14:58;;;;;;;5.05;3.20;;;12.70;92.30;;;;;;4945050;28;20062;-81
2022/02/28 11:17:28;;;;;;;6.53;2.85;;;12.80;93.90;;;;;;5006102;28;21676;-82
2022/02/28 11:19:58;;;;;;;4.43;2.85;;;12.90;92.00;;;;;;4990811;28;20039;-82
2022/02/28 11:22:30;;;;;;;4.63;2.85;;;13.00;92.10;;;;;;5000402;28;20121;-79
2022/02/28 11:25:00;;;;;;;3.42;2.55;;;13.10;92.10;;;;;;4989715;28;20133;-80
2022/02/28 11:27:29;;;;;;;3.70;2.80;;;13.00;91.50;;;;;;4988415;28;20054;-78
2022/02/28 11:29:59;;;;;;;3.60;2.85;;;12.90;90.50;;;;;;5009986;28;20046;-78
2022/02/28 11:32:28;;;;;;;4.05;2.80;;;13.00;90.30;;;;;;4985024;28;20039;-79
2022/02/28 11:35:35;;;;;;;4.35;2.75;;;13.10;89.70;;;;;;4984060;28;20046;-80
2022/02/28 11:38:06;;;;;;;4.32;2.60;;;13.20;89.20;;;;;;4969434;28;20058;-76
2022/02/28 11:40:35;;;;;;;4.57;2.83;;;13.40;89.10;;;;;;4993768;28;20668;-80
2022/02/28 11:43:12;;;;;;;5.07;2.70;;;13.50;89.80;;;;;;4990710;28;20070;-81
2022/02/28 11:45:50;;;;;;;5.35;2.97;;;13.70;90.10;;;;;;4990839;28;20611;-81
2022/02/28 11:48:29;;;;;;;4.45;2.70;;;13.70;89.40;;;;;;4982251;28;20105;-81
2022/02/28 11:51:01;;;;;;;4.65;2.90;;;13.60;90.00;;;;;;4996473;28;20106;-79
2022/02/28 11:53:38;;;;;;;4.03;3.42;;;13.80;89.90;;;;;;5009243;28;20100;-81
2022/02/28 11:56:54;;;;;;;4.50;2.95;;;14.00;89.00;;;;;;4990007;28;20054;-79
2022/02/28 11:59:26;;;;;;;8.35;3.55;;;14.10;89.20;;;;;;4987198;28;20084;-81
2022/02/28 12:02:03;;;;;;;5.60;3.42;;;14.30;89.70;;;;;;4989410;28;20048;-81
2022/02/28 12:04:46;;;;;;;4.50;2.95;;;14.20;89.30;;;;;;4997275;28;20042;-81
2022/02/28 12:07:26;;;;;;;5.25;3.60;;;14.10;88.70;;;;;;5003231;28;20042;-81
2022/02/28 12:10:05;;;;;;;4.40;3.30;;;14.20;88.00;;;;;;5007877;28;20047;-82
2022/02/28 12:12:35;;;;;;;6.22;3.40;;;14.30;88.20;;;;;;4983760;28;20053;-80
2022/02/28 12:15:25;;;;;;;6.63;3.35;;;14.30;88.60;;;;;;5004592;28;20047;-79
2022/02/28 12:18:04;;;;;;;5.40;3.70;;;14.40;87.10;;;;;;4985748;28;20052;-80
2022/02/28 12:20:44;;;;;;;5.22;3.42;;;14.50;87.40;;;;;;4975642;28;20145;-81
2022/02/28 12:23:21;;;;;;;4.60;3.58;;;14.50;87.50;;;;;;4992966;28;20042;-81
2022/02/28 12:26:08;;;;;;;5.03;3.65;;;14.60;86.70;;;;;;4989249;28;20050;-82
2022/02/28 12:28:52;;;;;;;4.68;3.60;;;14.50;86.60;;;;;;4989969;28;20564;-81
2022/02/28 12:31:34;;;;;;;5.15;2.88;;;14.40;86.80;;;;;;4991862;28;20045;-81
2022/02/28 12:34:08;;;;;;;4.03;3.08;;;14.60;85.30;;;;;;4986754;28;20419;-80
2022/02/28 12:36:39;;;;;;;4.45;3.33;;;14.60;86.60;;;;;;4988084;28;20046;-81
2022/02/28 12:39:10;;;;;;;6.13;3.85;;;14.60;86.30;;;;;;4989610;28;20042;-81
2022/02/28 12:41:41;;;;;;;4.50;3.50;;;14.70;86.50;;;;;;4991421;28;20046;-80
2022/02/28 12:44:13;;;;;;;3.83;3.05;;;14.80;86.80;;;;;;4988105;28;20095;-80
2022/02/28 12:46:45;;;;;;;4.90;3.38;;;15.00;86.80;;;;;;5012970;28;20853;-81
2022/02/28 12:49:16;;;;;;;4.47;3.45;;;15.20;85.70;;;;;;4991038;28;20050;-81
2022/02/28 12:51:48;;;;;;;5.68;3.67;;;15.30;86.50;;;;;;4992316;28;20053;-80
2022/02/28 12:54:18;;;;;;;4.03;3.40;;;15.50;85.30;;;;;;4987029;28;20042;-80
2022/02/28 12:56:50;;;;;;;4.93;4.00;;;15.60;85.20;;;;;;5003410;28;20050;-81
2022/02/28 12:59:19;;;;;;;4.78;3.00;;;15.70;83.60;;;;;;4986316;28;20088;-79
2022/02/28 13:01:57;;;;;;;4.13;3.22;;;15.50;84.60;;;;;;4991225;28;20145;-81
2022/02/28 13:04:26;;;;;;;5.50;3.53;;;15.70;86.20;;;;;;4997966;28;20038;-79
2022/02/28 13:06:55;;;;;;;8.90;4.93;;;15.70;84.40;;;;;;5007564;28;20632;-78
2022/02/28 13:09:23;;;;;;;5.40;4.20;;;15.70;84.00;;;;;;4990263;28;20046;-80
2022/02/28 13:11:53;;;;;;;4.72;3.80;;;15.80;85.30;;;;;;4991459;28;20046;-78
2022/02/28 13:14:25;;;;;;;6.57;3.72;;;15.90;85.30;;;;;;4984032;28;20054;-78
2022/02/28 13:16:57;;;;;;;6.32;4.25;;;15.90;84.50;;;;;;4998694;28;20042;-79
2022/02/28 13:19:30;;;;;;;7.32;5.45;;;15.90;84.50;;;;;;4987012;28;20042;-80